sensor_id;sensor_type;location;lat;lon;timestamp;P1;durP1;ratioP1;P2;durP2;ratioP2
19595;SDS011;9945;46.010;8.946;2023-02-01T00:02:02;15.87;;;9.70;;
19595;SDS011;9945;46.010;8.946;2023-02-01T00:04:29;12.27;;;9.57;;
19595;SDS011;9945;46.010;8.946;2023-02-01T00:06:56;14.80;;;9.10;;
19595;SDS011;9945;46.010;8.946;2023-02-01T00:09:23;13.30;;;9.20;;
19595;SDS011;9945;46.010;8.946;2023-02-01T00:11:50;10.80;;;9.30;;
19595;SDS011;9945;46.010;8.946;2023-02-01T00:14:16;11.50;;;9.27;;
19595;SDS011;9945;46.010;8.946;2023-02-01T00:16:43;11.83;;;8.70;;
19595;SDS011;9945;46.010;8.946;2023-02-01T00:19:12;12.17;;;9.40;;
19595;SDS011;9945;46.010;8.946;2023-02-01T00:21:41;11.97;;;9.60;;
19595;SDS011;9945;46.010;8.946;2023-02-01T00:24:09;11.73;;;8.53;;
19595;SDS011;9945;46.010;8.946;2023-02-01T00:26:37;11.67;;;9.40;;
19595;SDS011;9945;46.010;8.946;2023-02-01T00:29:07;11.20;;;9.07;;
19595;SDS011;9945;46.010;8.946;2023-02-01T00:31:37;14.53;;;8.50;;
19595;SDS011;9945;46.010;8.946;2023-02-01T00:34:04;9.93;;;8.30;;
19595;SDS011;9945;46.010;8.946;2023-02-01T00:36:33;10.87;;;8.67;;
19595;SDS011;9945;46.010;8.946;2023-02-01T00:39:00;9.63;;;8.63;;
19595;SDS011;9945;46.010;8.946;2023-02-01T00:41:27;12.03;;;8.43;;
19595;SDS011;9945;46.010;8.946;2023-02-01T00:43:54;10.57;;;8.93;;
19595;SDS011;9945;46.010;8.946;2023-02-01T00:46:21;10.63;;;9.07;;
19595;SDS011;9945;46.010;8.946;2023-02-01T00:48:48;14.27;;;9.13;;
19595;SDS011;9945;46.010;8.946;2023-02-01T00:51:18;15.73;;;9.83;;
19595;SDS011;9945;46.010;8.946;2023-02-01T00:53:48;14.63;;;9.80;;
19595;SDS011;9945;46.010;8.946;2023-02-01T00:56:15;11.57;;;8.63;;
19595;SDS011;9945;46.010;8.946;2023-02-01T00:58:43;11.43;;;8.20;;
19595;SDS011;9945;46.010;8.946;2023-02-01T01:01:10;9.93;;;8.00;;
19595;SDS011;9945;46.010;8.946;2023-02-01T01:03:40;11.23;;;8.40;;
19595;SDS011;9945;46.010;8.946;2023-02-01T01:06:09;13.53;;;9.33;;
19595;SDS011;9945;46.010;8.946;2023-02-01T01:08:38;12.43;;;9.53;;
19595;SDS011;9945;46.010;8.946;2023-02-01T01:11:08;14.23;;;8.97;;
19595;SDS011;9945;46.010;8.946;2023-02-01T01:13:36;12.67;;;9.70;;
19595;SDS011;9945;46.010;8.946;2023-02-01T01:16:03;12.73;;;9.50;;
19595;SDS011;9945;46.010;8.946;2023-02-01T01:18:33;11.53;;;8.83;;
19595;SDS011;9945;46.010;8.946;2023-02-01T01:21:01;11.93;;;8.83;;
19595;SDS011;9945;46.010;8.946;2023-02-01T01:23:30;11.20;;;8.43;;
19595;SDS011;9945;46.010;8.946;2023-02-01T01:25:56;10.23;;;8.40;;
19595;SDS011;9945;46.010;8.946;2023-02-01T01:28:25;11.80;;;8.00;;
19595;SDS011;9945;46.010;8.946;2023-02-01T01:30:52;11.70;;;8.70;;
19595;SDS011;9945;46.010;8.946;2023-02-01T01:33:18;14.33;;;8.27;;
19595;SDS011;9945;46.010;8.946;2023-02-01T01:35:45;10.97;;;8.70;;
19595;SDS011;9945;46.010;8.946;2023-02-01T01:38:12;11.00;;;8.67;;
19595;SDS011;9945;46.010;8.946;2023-02-01T01:40:39;10.70;;;8.33;;
19595;SDS011;9945;46.010;8.946;2023-02-01T01:43:11;9.87;;;8.20;;
19595;SDS011;9945;46.010;8.946;2023-02-01T01:45:41;10.60;;;7.47;;
19595;SDS011;9945;46.010;8.946;2023-02-01T01:48:09;9.93;;;7.60;;
19595;SDS011;9945;46.010;8.946;2023-02-01T01:50:42;9.40;;;8.47;;
19595;SDS011;9945;46.010;8.946;2023-02-01T01:53:15;9.20;;;7.53;;
19595;SDS011;9945;46.010;8.946;2023-02-01T01:55:46;9.60;;;8.57;;
19595;SDS011;9945;46.010;8.946;2023-02-01T01:58:17;9.00;;;7.53;;
19595;SDS011;9945;46.010;8.946;2023-02-01T02:00:49;8.80;;;7.70;;
19595;SDS011;9945;46.010;8.946;2023-02-01T02:03:17;9.43;;;8.33;;
19595;SDS011;9945;46.010;8.946;2023-02-01T02:05:46;10.13;;;7.77;;
19595;SDS011;9945;46.010;8.946;2023-02-01T02:08:16;9.80;;;7.97;;
19595;SDS011;9945;46.010;8.946;2023-02-01T02:10:45;9.03;;;8.13;;
19595;SDS011;9945;46.010;8.946;2023-02-01T02:13:28;11.30;;;7.83;;
19595;SDS011;9945;46.010;8.946;2023-02-01T02:16:05;10.17;;;7.60;;
19595;SDS011;9945;46.010;8.946;2023-02-01T02:18:44;13.50;;;7.83;;
19595;SDS011;9945;46.010;8.946;2023-02-01T02:21:27;8.70;;;7.80;;
19595;SDS011;9945;46.010;8.946;2023-02-01T02:24:20;8.43;;;7.30;;
19595;SDS011;9945;46.010;8.946;2023-02-01T02:27:18;10.80;;;8.40;;
19595;SDS011;9945;46.010;8.946;2023-02-01T02:33:23;8.07;;;6.97;;
19595;SDS011;9945;46.010;8.946;2023-02-01T02:36:14;10.40;;;7.27;;
19595;SDS011;9945;46.010;8.946;2023-02-01T02:38:47;10.87;;;7.60;;
19595;SDS011;9945;46.010;8.946;2023-02-01T02:41:20;10.13;;;7.47;;
19595;SDS011;9945;46.010;8.946;2023-02-01T02:44:12;11.43;;;8.00;;
19595;SDS011;9945;46.010;8.946;2023-02-01T02:47:07;12.57;;;7.73;;
19595;SDS011;9945;46.010;8.946;2023-02-01T02:49:55;8.07;;;7.23;;
19595;SDS011;9945;46.010;8.946;2023-02-01T02:52:47;9.37;;;8.03;;
19595;SDS011;9945;46.010;8.946;2023-02-01T02:55:38;8.57;;;6.90;;
19595;SDS011;9945;46.010;8.946;2023-02-01T02:58:06;8.70;;;7.53;;
19595;SDS011;9945;46.010;8.946;2023-02-01T03:00:54;9.87;;;7.80;;
19595;SDS011;9945;46.010;8.946;2023-02-01T03:03:40;11.03;;;8.33;;
19595;SDS011;9945;46.010;8.946;2023-02-01T03:06:27;9.93;;;8.00;;
19595;SDS011;9945;46.010;8.946;2023-02-01T03:08:55;9.00;;;7.77;;
19595;SDS011;9945;46.010;8.946;2023-02-01T03:11:24;9.80;;;7.57;;
19595;SDS011;9945;46.010;8.946;2023-02-01T03:14:13;9.40;;;7.77;;
19595;SDS011;9945;46.010;8.946;2023-02-01T03:16:43;9.03;;;7.30;;
19595;SDS011;9945;46.010;8.946;2023-02-01T03:19:15;8.47;;;7.43;;
19595;SDS011;9945;46.010;8.946;2023-02-01T03:21:47;9.43;;;7.73;;
19595;SDS011;9945;46.010;8.946;2023-02-01T03:24:18;8.03;;;7.13;;
19595;SDS011;9945;46.010;8.946;2023-02-01T03:26:58;9.17;;;6.97;;
19595;SDS011;9945;46.010;8.946;2023-02-01T03:29:29;8.63;;;7.07;;
19595;SDS011;9945;46.010;8.946;2023-02-01T03:32:03;9.97;;;8.07;;
19595;SDS011;9945;46.010;8.946;2023-02-01T03:34:30;9.87;;;7.17;;
19595;SDS011;9945;46.010;8.946;2023-02-01T03:36:59;8.57;;;7.63;;
19595;SDS011;9945;46.010;8.946;2023-02-01T03:39:29;9.30;;;7.73;;
19595;SDS011;9945;46.010;8.946;2023-02-01T03:42:01;9.00;;;7.47;;
19595;SDS011;9945;46.010;8.946;2023-02-01T03:44:32;8.87;;;7.30;;
19595;SDS011;9945;46.010;8.946;2023-02-01T03:47:03;10.00;;;7.40;;
19595;SDS011;9945;46.010;8.946;2023-02-01T03:49:35;9.30;;;7.10;;
19595;SDS011;9945;46.010;8.946;2023-02-01T03:52:08;9.87;;;7.23;;
19595;SDS011;9945;46.010;8.946;2023-02-01T03:54:44;9.10;;;6.63;;
19595;SDS011;9945;46.010;8.946;2023-02-01T03:57:13;7.60;;;6.90;;
19595;SDS011;9945;46.010;8.946;2023-02-01T03:59:44;9.83;;;7.00;;
19595;SDS011;9945;46.010;8.946;2023-02-01T04:02:12;7.53;;;6.80;;
19595;SDS011;9945;46.010;8.946;2023-02-01T04:04:39;7.40;;;6.13;;
19595;SDS011;9945;46.010;8.946;2023-02-01T04:07:07;8.60;;;6.97;;
19595;SDS011;9945;46.010;8.946;2023-02-01T04:09:34;9.07;;;6.17;;
19595;SDS011;9945;46.010;8.946;2023-02-01T04:12:01;11.63;;;6.27;;
19595;SDS011;9945;46.010;8.946;2023-02-01T04:14:28;7.73;;;6.97;;
19595;SDS011;9945;46.010;8.946;2023-02-01T04:16:55;7.77;;;6.33;;
19595;SDS011;9945;46.010;8.946;2023-02-01T04:19:22;7.53;;;6.70;;
19595;SDS011;9945;46.010;8.946;2023-02-01T04:21:48;8.90;;;6.53;;
19595;SDS011;9945;46.010;8.946;2023-02-01T04:24:17;7.83;;;7.03;;
19595;SDS011;9945;46.010;8.946;2023-02-01T04:26:43;7.93;;;6.43;;
19595;SDS011;9945;46.010;8.946;2023-02-01T04:29:10;8.93;;;6.90;;
19595;SDS011;9945;46.010;8.946;2023-02-01T04:31:37;7.17;;;6.17;;
19595;SDS011;9945;46.010;8.946;2023-02-01T04:34:04;8.43;;;6.23;;
19595;SDS011;9945;46.010;8.946;2023-02-01T04:36:31;9.20;;;6.43;;
19595;SDS011;9945;46.010;8.946;2023-02-01T04:38:58;8.40;;;6.37;;
19595;SDS011;9945;46.010;8.946;2023-02-01T04:41:26;8.43;;;6.10;;
19595;SDS011;9945;46.010;8.946;2023-02-01T04:43:54;9.73;;;6.53;;
19595;SDS011;9945;46.010;8.946;2023-02-01T04:46:20;8.53;;;6.53;;
19595;SDS011;9945;46.010;8.946;2023-02-01T04:48:47;6.70;;;6.00;;
19595;SDS011;9945;46.010;8.946;2023-02-01T04:51:14;10.80;;;6.83;;
19595;SDS011;9945;46.010;8.946;2023-02-01T04:53:43;7.10;;;6.00;;
19595;SDS011;9945;46.010;8.946;2023-02-01T04:56:10;8.07;;;6.00;;
19595;SDS011;9945;46.010;8.946;2023-02-01T04:58:38;8.10;;;6.67;;
19595;SDS011;9945;46.010;8.946;2023-02-01T05:01:05;7.23;;;6.30;;
19595;SDS011;9945;46.010;8.946;2023-02-01T05:03:33;7.23;;;6.27;;
19595;SDS011;9945;46.010;8.946;2023-02-01T05:06:00;9.47;;;5.90;;
19595;SDS011;9945;46.010;8.946;2023-02-01T05:08:29;8.20;;;6.17;;
19595;SDS011;9945;46.010;8.946;2023-02-01T05:10:56;7.80;;;6.00;;
19595;SDS011;9945;46.010;8.946;2023-02-01T05:13:24;8.10;;;6.37;;
19595;SDS011;9945;46.010;8.946;2023-02-01T05:16:09;8.37;;;5.93;;
19595;SDS011;9945;46.010;8.946;2023-02-01T05:18:36;8.33;;;5.50;;
19595;SDS011;9945;46.010;8.946;2023-02-01T05:21:03;6.20;;;5.53;;
19595;SDS011;9945;46.010;8.946;2023-02-01T05:23:30;8.97;;;5.90;;
19595;SDS011;9945;46.010;8.946;2023-02-01T05:25:58;8.57;;;5.27;;
19595;SDS011;9945;46.010;8.946;2023-02-01T05:28:25;5.60;;;5.03;;
19595;SDS011;9945;46.010;8.946;2023-02-01T05:30:52;5.87;;;5.30;;
19595;SDS011;9945;46.010;8.946;2023-02-01T05:33:20;5.80;;;4.67;;
19595;SDS011;9945;46.010;8.946;2023-02-01T05:35:48;6.43;;;5.20;;
19595;SDS011;9945;46.010;8.946;2023-02-01T05:38:15;6.20;;;5.40;;
19595;SDS011;9945;46.010;8.946;2023-02-01T05:40:42;6.70;;;5.10;;
19595;SDS011;9945;46.010;8.946;2023-02-01T05:43:14;5.83;;;5.20;;
19595;SDS011;9945;46.010;8.946;2023-02-01T05:45:41;5.33;;;4.80;;
19595;SDS011;9945;46.010;8.946;2023-02-01T05:48:08;9.00;;;5.90;;
19595;SDS011;9945;46.010;8.946;2023-02-01T05:50:37;7.30;;;5.27;;
19595;SDS011;9945;46.010;8.946;2023-02-01T05:53:04;7.10;;;5.43;;
19595;SDS011;9945;46.010;8.946;2023-02-01T05:55:30;8.00;;;5.27;;
19595;SDS011;9945;46.010;8.946;2023-02-01T05:57:57;7.70;;;5.37;;
19595;SDS011;9945;46.010;8.946;2023-02-01T06:00:25;9.80;;;6.10;;
19595;SDS011;9945;46.010;8.946;2023-02-01T06:02:52;5.80;;;5.30;;
19595;SDS011;9945;46.010;8.946;2023-02-01T06:05:19;8.40;;;5.20;;
19595;SDS011;9945;46.010;8.946;2023-02-01T06:07:47;6.17;;;5.23;;
19595;SDS011;9945;46.010;8.946;2023-02-01T06:10:15;6.50;;;5.37;;
19595;SDS011;9945;46.010;8.946;2023-02-01T06:12:42;6.73;;;5.73;;
19595;SDS011;9945;46.010;8.946;2023-02-01T06:15:10;8.10;;;5.17;;
19595;SDS011;9945;46.010;8.946;2023-02-01T06:17:37;6.87;;;5.27;;
19595;SDS011;9945;46.010;8.946;2023-02-01T06:20:06;9.20;;;5.90;;
19595;SDS011;9945;46.010;8.946;2023-02-01T06:22:34;10.23;;;4.80;;
19595;SDS011;9945;46.010;8.946;2023-02-01T06:25:03;6.67;;;5.57;;
19595;SDS011;9945;46.010;8.946;2023-02-01T06:27:30;8.50;;;5.53;;
19595;SDS011;9945;46.010;8.946;2023-02-01T06:29:57;7.70;;;5.57;;
19595;SDS011;9945;46.010;8.946;2023-02-01T06:32:24;6.50;;;5.23;;
19595;SDS011;9945;46.010;8.946;2023-02-01T06:34:51;9.27;;;5.77;;
19595;SDS011;9945;46.010;8.946;2023-02-01T06:37:18;11.60;;;6.27;;
19595;SDS011;9945;46.010;8.946;2023-02-01T06:39:45;7.90;;;5.83;;
19595;SDS011;9945;46.010;8.946;2023-02-01T06:42:13;8.30;;;6.53;;
19595;SDS011;9945;46.010;8.946;2023-02-01T06:44:40;5.80;;;4.90;;
19595;SDS011;9945;46.010;8.946;2023-02-01T06:47:07;9.43;;;5.90;;
19595;SDS011;9945;46.010;8.946;2023-02-01T06:49:34;7.00;;;5.10;;
19595;SDS011;9945;46.010;8.946;2023-02-01T06:52:01;8.23;;;5.73;;
19595;SDS011;9945;46.010;8.946;2023-02-01T06:54:28;6.10;;;5.30;;
19595;SDS011;9945;46.010;8.946;2023-02-01T06:56:57;7.27;;;5.40;;
19595;SDS011;9945;46.010;8.946;2023-02-01T06:59:25;9.87;;;6.20;;
19595;SDS011;9945;46.010;8.946;2023-02-01T07:01:52;7.93;;;5.83;;
19595;SDS011;9945;46.010;8.946;2023-02-01T07:04:19;5.30;;;4.90;;
19595;SDS011;9945;46.010;8.946;2023-02-01T07:06:46;8.30;;;6.47;;
19595;SDS011;9945;46.010;8.946;2023-02-01T07:09:13;7.20;;;6.13;;
19595;SDS011;9945;46.010;8.946;2023-02-01T07:11:40;6.80;;;6.10;;
19595;SDS011;9945;46.010;8.946;2023-02-01T07:14:08;7.53;;;6.47;;
19595;SDS011;9945;46.010;8.946;2023-02-01T07:16:36;11.60;;;5.90;;
19595;SDS011;9945;46.010;8.946;2023-02-01T07:19:04;7.20;;;6.47;;
19595;SDS011;9945;46.010;8.946;2023-02-01T07:21:31;7.50;;;6.57;;
19595;SDS011;9945;46.010;8.946;2023-02-01T07:23:58;8.90;;;5.70;;
19595;SDS011;9945;46.010;8.946;2023-02-01T07:26:25;6.93;;;6.07;;
19595;SDS011;9945;46.010;8.946;2023-02-01T07:28:52;9.87;;;6.27;;
19595;SDS011;9945;46.010;8.946;2023-02-01T07:31:19;8.40;;;6.03;;
19595;SDS011;9945;46.010;8.946;2023-02-01T07:33:48;8.87;;;7.03;;
19595;SDS011;9945;46.010;8.946;2023-02-01T07:36:17;11.53;;;6.90;;
19595;SDS011;9945;46.010;8.946;2023-02-01T07:38:45;9.53;;;6.80;;
19595;SDS011;9945;46.010;8.946;2023-02-01T07:41:13;8.37;;;5.93;;
19595;SDS011;9945;46.010;8.946;2023-02-01T07:43:40;9.70;;;6.37;;
19595;SDS011;9945;46.010;8.946;2023-02-01T07:46:07;9.87;;;6.60;;
19595;SDS011;9945;46.010;8.946;2023-02-01T07:48:34;7.63;;;5.80;;
19595;SDS011;9945;46.010;8.946;2023-02-01T07:51:02;8.87;;;6.70;;
19595;SDS011;9945;46.010;8.946;2023-02-01T07:53:31;11.17;;;6.60;;
19595;SDS011;9945;46.010;8.946;2023-02-01T07:55:59;8.33;;;5.70;;
19595;SDS011;9945;46.010;8.946;2023-02-01T07:58:26;11.13;;;6.53;;
19595;SDS011;9945;46.010;8.946;2023-02-01T08:00:54;8.37;;;6.10;;
19595;SDS011;9945;46.010;8.946;2023-02-01T08:03:38;10.43;;;5.80;;
19595;SDS011;9945;46.010;8.946;2023-02-01T08:06:07;11.77;;;6.67;;
19595;SDS011;9945;46.010;8.946;2023-02-01T08:08:34;8.43;;;6.07;;
19595;SDS011;9945;46.010;8.946;2023-02-01T08:11:02;10.40;;;5.50;;
19595;SDS011;9945;46.010;8.946;2023-02-01T08:13:30;13.33;;;6.13;;
19595;SDS011;9945;46.010;8.946;2023-02-01T08:15:59;11.67;;;6.37;;
19595;SDS011;9945;46.010;8.946;2023-02-01T08:18:27;8.23;;;6.47;;
19595;SDS011;9945;46.010;8.946;2023-02-01T08:20:54;10.30;;;6.30;;
19595;SDS011;9945;46.010;8.946;2023-02-01T08:23:22;10.17;;;6.47;;
19595;SDS011;9945;46.010;8.946;2023-02-01T08:25:49;15.60;;;5.80;;
19595;SDS011;9945;46.010;8.946;2023-02-01T08:28:16;15.47;;;6.70;;
19595;SDS011;9945;46.010;8.946;2023-02-01T08:30:43;12.37;;;6.00;;
19595;SDS011;9945;46.010;8.946;2023-02-01T08:33:10;11.33;;;6.50;;
19595;SDS011;9945;46.010;8.946;2023-02-01T08:35:38;15.50;;;7.23;;
19595;SDS011;9945;46.010;8.946;2023-02-01T08:38:04;14.77;;;6.60;;
19595;SDS011;9945;46.010;8.946;2023-02-01T08:40:33;10.83;;;5.50;;
19595;SDS011;9945;46.010;8.946;2023-02-01T08:43:00;12.20;;;5.20;;
19595;SDS011;9945;46.010;8.946;2023-02-01T08:45:27;10.90;;;6.77;;
19595;SDS011;9945;46.010;8.946;2023-02-01T08:47:55;6.10;;;5.07;;
19595;SDS011;9945;46.010;8.946;2023-02-01T08:50:23;15.37;;;6.33;;
19595;SDS011;9945;46.010;8.946;2023-02-01T08:52:51;10.90;;;5.43;;
19595;SDS011;9945;46.010;8.946;2023-02-01T08:55:18;13.63;;;5.07;;
19595;SDS011;9945;46.010;8.946;2023-02-01T08:57:47;7.53;;;4.00;;
19595;SDS011;9945;46.010;8.946;2023-02-01T09:00:15;8.00;;;5.10;;
19595;SDS011;9945;46.010;8.946;2023-02-01T09:02:43;15.30;;;5.07;;
19595;SDS011;9945;46.010;8.946;2023-02-01T09:05:11;16.50;;;4.90;;
19595;SDS011;9945;46.010;8.946;2023-02-01T09:07:39;12.83;;;5.30;;
19595;SDS011;9945;46.010;8.946;2023-02-01T09:10:06;12.40;;;4.90;;
19595;SDS011;9945;46.010;8.946;2023-02-01T09:12:34;13.93;;;6.93;;
19595;SDS011;9945;46.010;8.946;2023-02-01T09:15:05;9.87;;;4.70;;
19595;SDS011;9945;46.010;8.946;2023-02-01T09:17:33;23.37;;;5.17;;
19595;SDS011;9945;46.010;8.946;2023-02-01T09:20:00;11.80;;;5.03;;
19595;SDS011;9945;46.010;8.946;2023-02-01T09:22:27;11.53;;;5.20;;
19595;SDS011;9945;46.010;8.946;2023-02-01T09:24:54;9.77;;;6.10;;
19595;SDS011;9945;46.010;8.946;2023-02-01T09:27:21;7.85;;;5.28;;
19595;SDS011;9945;46.010;8.946;2023-02-01T09:29:48;13.13;;;5.82;;
19595;SDS011;9945;46.010;8.946;2023-02-01T09:32:19;13.95;;;7.00;;
19595;SDS011;9945;46.010;8.946;2023-02-01T09:34:47;10.20;;;7.20;;
19595;SDS011;9945;46.010;8.946;2023-02-01T09:37:14;13.50;;;7.57;;
19595;SDS011;9945;46.010;8.946;2023-02-01T09:39:41;10.07;;;6.07;;
19595;SDS011;9945;46.010;8.946;2023-02-01T09:42:14;8.18;;;6.47;;
19595;SDS011;9945;46.010;8.946;2023-02-01T09:44:59;7.40;;;6.13;;
19595;SDS011;9945;46.010;8.946;2023-02-01T09:47:34;9.10;;;5.90;;
19595;SDS011;9945;46.010;8.946;2023-02-01T09:50:03;6.40;;;5.75;;
19595;SDS011;9945;46.010;8.946;2023-02-01T09:52:36;12.45;;;6.90;;
19595;SDS011;9945;46.010;8.946;2023-02-01T09:55:10;8.77;;;5.85;;
19595;SDS011;9945;46.010;8.946;2023-02-01T09:57:44;13.45;;;6.00;;
19595;SDS011;9945;46.010;8.946;2023-02-01T10:00:18;8.10;;;6.40;;
19595;SDS011;9945;46.010;8.946;2023-02-01T10:02:51;9.98;;;6.10;;
19595;SDS011;9945;46.010;8.946;2023-02-01T10:05:22;9.88;;;5.80;;
19595;SDS011;9945;46.010;8.946;2023-02-01T10:08:04;6.90;;;5.00;;
19595;SDS011;9945;46.010;8.946;2023-02-01T10:10:43;8.55;;;4.43;;
19595;SDS011;9945;46.010;8.946;2023-02-01T10:13:21;5.53;;;5.03;;
19595;SDS011;9945;46.010;8.946;2023-02-01T10:16:11;7.78;;;5.40;;
19595;SDS011;9945;46.010;8.946;2023-02-01T10:18:49;7.03;;;4.93;;
19595;SDS011;9945;46.010;8.946;2023-02-01T10:21:28;9.15;;;5.43;;
19595;SDS011;9945;46.010;8.946;2023-02-01T10:27:11;6.78;;;5.90;;
19595;SDS011;9945;46.010;8.946;2023-02-01T10:29:41;7.63;;;6.32;;
19595;SDS011;9945;46.010;8.946;2023-02-01T10:32:12;8.57;;;5.28;;
19595;SDS011;9945;46.010;8.946;2023-02-01T10:34:42;6.57;;;5.85;;
19595;SDS011;9945;46.010;8.946;2023-02-01T10:37:16;10.18;;;5.60;;
19595;SDS011;9945;46.010;8.946;2023-02-01T10:39:49;7.63;;;5.85;;
19595;SDS011;9945;46.010;8.946;2023-02-01T10:42:21;8.30;;;6.03;;
19595;SDS011;9945;46.010;8.946;2023-02-01T10:44:51;6.55;;;5.43;;
19595;SDS011;9945;46.010;8.946;2023-02-01T10:47:20;7.38;;;6.35;;
19595;SDS011;9945;46.010;8.946;2023-02-01T10:49:52;6.57;;;5.95;;
19595;SDS011;9945;46.010;8.946;2023-02-01T10:52:26;8.23;;;6.10;;
19595;SDS011;9945;46.010;8.946;2023-02-01T10:58:03;7.18;;;5.50;;
19595;SDS011;9945;46.010;8.946;2023-02-01T11:00:35;6.97;;;5.15;;
19595;SDS011;9945;46.010;8.946;2023-02-01T11:03:30;8.65;;;4.50;;
19595;SDS011;9945;46.010;8.946;2023-02-01T11:06:10;5.93;;;4.82;;
19595;SDS011;9945;46.010;8.946;2023-02-01T11:08:44;5.50;;;5.07;;
19595;SDS011;9945;46.010;8.946;2023-02-01T11:11:12;12.98;;;6.00;;
19595;SDS011;9945;46.010;8.946;2023-02-01T11:13:39;5.57;;;5.05;;
19595;SDS011;9945;46.010;8.946;2023-02-01T11:16:09;4.50;;;4.07;;
19595;SDS011;9945;46.010;8.946;2023-02-01T11:18:38;5.05;;;4.00;;
19595;SDS011;9945;46.010;8.946;2023-02-01T11:21:06;4.90;;;4.45;;
19595;SDS011;9945;46.010;8.946;2023-02-01T11:23:39;3.35;;;2.97;;
19595;SDS011;9945;46.010;8.946;2023-02-01T11:26:09;4.80;;;4.40;;
19595;SDS011;9945;46.010;8.946;2023-02-01T11:28:39;6.85;;;4.95;;
19595;SDS011;9945;46.010;8.946;2023-02-01T11:31:11;9.43;;;5.40;;
19595;SDS011;9945;46.010;8.946;2023-02-01T11:33:42;5.57;;;4.60;;
19595;SDS011;9945;46.010;8.946;2023-02-01T11:36:14;6.63;;;3.90;;
19595;SDS011;9945;46.010;8.946;2023-02-01T11:38:47;5.95;;;3.35;;
19595;SDS011;9945;46.010;8.946;2023-02-01T11:41:23;3.22;;;2.92;;
19595;SDS011;9945;46.010;8.946;2023-02-01T11:43:52;5.00;;;2.95;;
19595;SDS011;9945;46.010;8.946;2023-02-01T11:46:22;3.83;;;3.00;;
19595;SDS011;9945;46.010;8.946;2023-02-01T11:48:54;3.33;;;3.03;;
19595;SDS011;9945;46.010;8.946;2023-02-01T11:51:32;3.70;;;3.40;;
19595;SDS011;9945;46.010;8.946;2023-02-01T11:54:23;3.67;;;2.63;;
19595;SDS011;9945;46.010;8.946;2023-02-01T11:57:12;4.13;;;3.20;;
19595;SDS011;9945;46.010;8.946;2023-02-01T11:59:58;4.00;;;3.60;;
19595;SDS011;9945;46.010;8.946;2023-02-01T12:02:42;5.90;;;4.22;;
19595;SDS011;9945;46.010;8.946;2023-02-01T12:05:31;5.70;;;4.22;;
19595;SDS011;9945;46.010;8.946;2023-02-01T12:08:17;3.90;;;3.60;;
19595;SDS011;9945;46.010;8.946;2023-02-01T12:11:09;3.67;;;3.38;;
19595;SDS011;9945;46.010;8.946;2023-02-01T12:13:55;3.08;;;2.80;;
19595;SDS011;9945;46.010;8.946;2023-02-01T12:16:36;2.33;;;2.22;;
19595;SDS011;9945;46.010;8.946;2023-02-01T12:19:15;4.22;;;2.75;;
19595;SDS011;9945;46.010;8.946;2023-02-01T12:22:07;3.67;;;2.80;;
19595;SDS011;9945;46.010;8.946;2023-02-01T12:24:49;5.63;;;4.07;;
19595;SDS011;9945;46.010;8.946;2023-02-01T12:30:25;13.10;;;4.75;;
19595;SDS011;9945;46.010;8.946;2023-02-01T12:33:12;19.17;;;4.97;;
19595;SDS011;9945;46.010;8.946;2023-02-01T12:35:50;5.45;;;3.58;;
19595;SDS011;9945;46.010;8.946;2023-02-01T12:38:29;4.35;;;3.60;;
19595;SDS011;9945;46.010;8.946;2023-02-01T12:41:15;9.45;;;4.55;;
19595;SDS011;9945;46.010;8.946;2023-02-01T12:43:57;15.18;;;4.25;;
19595;SDS011;9945;46.010;8.946;2023-02-01T12:46:33;26.30;;;5.50;;
19595;SDS011;9945;46.010;8.946;2023-02-01T12:49:05;22.05;;;5.18;;
19595;SDS011;9945;46.010;8.946;2023-02-01T12:51:36;50.42;;;9.05;;
19595;SDS011;9945;46.010;8.946;2023-02-01T12:54:10;25.60;;;5.72;;
19595;SDS011;9945;46.010;8.946;2023-02-01T12:56:43;33.50;;;5.88;;
19595;SDS011;9945;46.010;8.946;2023-02-01T12:59:18;6.38;;;2.60;;
19595;SDS011;9945;46.010;8.946;2023-02-01T13:01:51;27.40;;;5.60;;
19595;SDS011;9945;46.010;8.946;2023-02-01T13:04:26;16.00;;;4.55;;
19595;SDS011;9945;46.010;8.946;2023-02-01T13:07:00;10.10;;;4.70;;
19595;SDS011;9945;46.010;8.946;2023-02-01T13:09:35;3.38;;;3.08;;
19595;SDS011;9945;46.010;8.946;2023-02-01T13:12:12;3.40;;;3.10;;
19595;SDS011;9945;46.010;8.946;2023-02-01T13:14:46;12.43;;;3.25;;
19595;SDS011;9945;46.010;8.946;2023-02-01T13:17:18;5.05;;;3.13;;
19595;SDS011;9945;46.010;8.946;2023-02-01T13:19:50;5.65;;;3.20;;
19595;SDS011;9945;46.010;8.946;2023-02-01T13:22:22;4.45;;;2.90;;
19595;SDS011;9945;46.010;8.946;2023-02-01T13:24:53;8.20;;;2.70;;
19595;SDS011;9945;46.010;8.946;2023-02-01T13:27:26;13.15;;;3.65;;
19595;SDS011;9945;46.010;8.946;2023-02-01T13:29:58;38.80;;;6.63;;
19595;SDS011;9945;46.010;8.946;2023-02-01T13:35:47;6.45;;;2.58;;
19595;SDS011;9945;46.010;8.946;2023-02-01T13:38:38;2.72;;;2.53;;
19595;SDS011;9945;46.010;8.946;2023-02-01T13:41:21;2.47;;;2.28;;
19595;SDS011;9945;46.010;8.946;2023-02-01T13:43:53;2.85;;;2.50;;
19595;SDS011;9945;46.010;8.946;2023-02-01T13:46:23;6.30;;;2.50;;
19595;SDS011;9945;46.010;8.946;2023-02-01T13:48:51;2.60;;;2.40;;
19595;SDS011;9945;46.010;8.946;2023-02-01T13:51:31;8.00;;;3.10;;
19595;SDS011;9945;46.010;8.946;2023-02-01T13:54:01;3.10;;;2.40;;
19595;SDS011;9945;46.010;8.946;2023-02-01T13:56:32;3.40;;;2.40;;
19595;SDS011;9945;46.010;8.946;2023-02-01T14:05:12;3.13;;;2.30;;
19595;SDS011;9945;46.010;8.946;2023-02-01T14:08:21;8.48;;;2.58;;
19595;SDS011;9945;46.010;8.946;2023-02-01T14:10:50;4.22;;;2.30;;
19595;SDS011;9945;46.010;8.946;2023-02-01T14:13:25;3.33;;;2.35;;
19595;SDS011;9945;46.010;8.946;2023-02-01T14:18:56;6.20;;;2.70;;
19595;SDS011;9945;46.010;8.946;2023-02-01T14:21:27;3.65;;;2.75;;
19595;SDS011;9945;46.010;8.946;2023-02-01T14:23:57;9.32;;;2.25;;
19595;SDS011;9945;46.010;8.946;2023-02-01T14:26:27;2.45;;;2.25;;
19595;SDS011;9945;46.010;8.946;2023-02-01T14:29:21;2.25;;;1.90;;
19595;SDS011;9945;46.010;8.946;2023-02-01T14:31:53;6.55;;;2.72;;
19595;SDS011;9945;46.010;8.946;2023-02-01T14:34:35;5.72;;;2.35;;
19595;SDS011;9945;46.010;8.946;2023-02-01T14:37:09;5.63;;;2.72;;
19595;SDS011;9945;46.010;8.946;2023-02-01T14:39:54;10.05;;;3.42;;
19595;SDS011;9945;46.010;8.946;2023-02-01T14:42:28;3.35;;;2.35;;
19595;SDS011;9945;46.010;8.946;2023-02-01T14:51:00;3.53;;;2.58;;
19595;SDS011;9945;46.010;8.946;2023-02-01T14:53:30;3.60;;;2.30;;
19595;SDS011;9945;46.010;8.946;2023-02-01T14:56:00;2.22;;;2.03;;
19595;SDS011;9945;46.010;8.946;2023-02-01T14:58:35;5.72;;;2.38;;
19595;SDS011;9945;46.010;8.946;2023-02-01T15:01:14;2.03;;;1.73;;
19595;SDS011;9945;46.010;8.946;2023-02-01T15:03:47;1.40;;;0.50;;
19595;SDS011;9945;46.010;8.946;2023-02-01T15:06:25;0.85;;;0.43;;
19595;SDS011;9945;46.010;8.946;2023-02-01T15:08:56;0.75;;;0.75;;
19595;SDS011;9945;46.010;8.946;2023-02-01T15:11:25;2.50;;;1.08;;
19595;SDS011;9945;46.010;8.946;2023-02-01T15:13:53;1.25;;;0.98;;
19595;SDS011;9945;46.010;8.946;2023-02-01T15:16:22;4.07;;;1.42;;
19595;SDS011;9945;46.010;8.946;2023-02-01T15:18:50;0.52;;;0.52;;
19595;SDS011;9945;46.010;8.946;2023-02-01T15:21:37;5.18;;;1.40;;
19595;SDS011;9945;46.010;8.946;2023-02-01T15:24:11;1.00;;;1.00;;
19595;SDS011;9945;46.010;8.946;2023-02-01T15:26:38;0.50;;;0.50;;
19595;SDS011;9945;46.010;8.946;2023-02-01T15:29:08;0.85;;;0.47;;
19595;SDS011;9945;46.010;8.946;2023-02-01T15:31:38;0.93;;;0.55;;
19595;SDS011;9945;46.010;8.946;2023-02-01T15:34:07;0.43;;;0.40;;
19595;SDS011;9945;46.010;8.946;2023-02-01T15:36:36;2.22;;;0.73;;
19595;SDS011;9945;46.010;8.946;2023-02-01T15:39:14;2.05;;;0.85;;
19595;SDS011;9945;46.010;8.946;2023-02-01T15:41:46;2.05;;;0.90;;
19595;SDS011;9945;46.010;8.946;2023-02-01T15:44:19;2.72;;;0.90;;
19595;SDS011;9945;46.010;8.946;2023-02-01T15:46:53;3.45;;;1.42;;
19595;SDS011;9945;46.010;8.946;2023-02-01T15:49:23;0.93;;;0.90;;
19595;SDS011;9945;46.010;8.946;2023-02-01T15:51:54;0.85;;;0.80;;
19595;SDS011;9945;46.010;8.946;2023-02-01T15:54:23;3.28;;;1.15;;
19595;SDS011;9945;46.010;8.946;2023-02-01T15:56:54;1.67;;;0.77;;